CDN1460 CYUL-LFRS
Flight info
| Callsign | CDN1460 |
|---|---|
| Flight time | N/A |
| Altitude | 37000 |
| Route | CYUL5 VIKBU DCT ATENE Q907 MIILS N285B NICSO/M083F370 DCT 4850N DCT 4940N DCT 5030N DCT 5120N DCT DINIM DCT ELSOX DCT RATKA/N0477F370 DCT ADRUD DCT MATER DCT ERBIN |
| Aircraft | B77L/H-SDE1E2E3FGHIJ2J3J4J5M1RWXY/LB1D1 |
Departure
| Time | 2026-05-05 15:42 |
|---|---|
| Airport | Montreal / Pierre Elliott Trudeau International Airport (CYUL) |
Arrival
| Time | N/A |
|---|---|
| Airport | Nantes Atlantique Airport (LFRS) |
| Time | Latitude | Longitude | Altitude | Speed | Heading |
|---|---|---|---|---|---|
| 2026-05-05 15:24 | 45.45981 | -73.75737 | 109 ft | 0 kts | 177° |
| 2026-05-05 15:32 | 45.46000 | -73.75739 | 106 ft | 3 kts | 177° |
| 2026-05-05 15:32 | 45.46020 | -73.75740 | 108 ft | 3 kts | 176° |
| 2026-05-05 15:32 | 45.46038 | -73.75748 | 106 ft | 3 kts | 136° |
| 2026-05-05 15:33 | 45.46051 | -73.75770 | 106 ft | 3 kts | 107° |
| 2026-05-05 15:33 | 45.46053 | -73.75785 | 105 ft | 0 kts | 90° |
| 2026-05-05 15:35 | 45.46058 | -73.75669 | 109 ft | 26 kts | 86° |
| 2026-05-05 15:36 | 45.46103 | -73.75403 | 107 ft | 28 kts | 62° |
| 2026-05-05 15:36 | 45.46149 | -73.75132 | 107 ft | 28 kts | 88° |
| 2026-05-05 15:36 | 45.46156 | -73.74855 | 107 ft | 28 kts | 88° |
| 2026-05-05 15:36 | 45.46142 | -73.74589 | 108 ft | 27 kts | 107° |
| 2026-05-05 15:37 | 45.46130 | -73.74324 | 108 ft | 27 kts | 89° |
| 2026-05-05 15:37 | 45.46154 | -73.74064 | 109 ft | 26 kts | 65° |
| 2026-05-05 15:37 | 45.46276 | -73.73876 | 110 ft | 26 kts | 43° |
| 2026-05-05 15:37 | 45.46410 | -73.73701 | 109 ft | 26 kts | 41° |
| 2026-05-05 15:38 | 45.46544 | -73.73525 | 111 ft | 26 kts | 43° |
| 2026-05-05 15:38 | 45.46678 | -73.73350 | 114 ft | 26 kts | 41° |
| 2026-05-05 15:38 | 45.46812 | -73.73175 | 115 ft | 26 kts | 44° |
| 2026-05-05 15:38 | 45.46947 | -73.72999 | 116 ft | 26 kts | 41° |
| 2026-05-05 15:39 | 45.47080 | -73.72823 | 118 ft | 26 kts | 43° |
| 2026-05-05 15:39 | 45.47215 | -73.72648 | 118 ft | 26 kts | 42° |
| 2026-05-05 15:39 | 45.47348 | -73.72471 | 119 ft | 26 kts | 43° |
| 2026-05-05 15:39 | 45.47482 | -73.72297 | 119 ft | 26 kts | 42° |
| 2026-05-05 15:40 | 45.47615 | -73.72125 | 122 ft | 26 kts | 43° |
| 2026-05-05 15:40 | 45.47748 | -73.71948 | 121 ft | 26 kts | 43° |
| 2026-05-05 15:40 | 45.47858 | -73.71797 | 122 ft | 18 kts | 56° |
| 2026-05-05 15:40 | 45.47824 | -73.71641 | 122 ft | 17 kts | 130° |
| 2026-05-05 15:41 | 45.47755 | -73.71561 | 124 ft | 12 kts | 170° |
| 2026-05-05 15:41 | 45.47686 | -73.71626 | 125 ft | 18 kts | 224° |
| 2026-05-05 15:41 | 45.47433 | -73.71956 | 124 ft | 88 kts | 222° |
| 2026-05-05 15:41 | 45.46812 | -73.72780 | 118 ft | 153 kts | 224° |
| 2026-05-05 15:42 | 45.45977 | -73.73896 | 546 ft | 169 kts | 224° |
| 2026-05-05 15:42 | 45.45099 | -73.75074 | 1127 ft | 179 kts | 223° |
| 2026-05-05 15:42 | 45.44157 | -73.76342 | 1704 ft | 195 kts | 225° |
| 2026-05-05 15:42 | 45.43060 | -73.77508 | 2518 ft | 206 kts | 206° |
| 2026-05-05 15:43 | 45.41548 | -73.77679 | 3367 ft | 234 kts | 175° |
| 2026-05-05 15:43 | 45.40012 | -73.76587 | 4297 ft | 263 kts | 147° |
| 2026-05-05 15:43 | 45.38892 | -73.74397 | 5279 ft | 289 kts | 120° |
| 2026-05-05 15:43 | 45.38484 | -73.71497 | 6242 ft | 312 kts | 94° |
| 2026-05-05 15:44 | 45.38824 | -73.68401 | 7258 ft | 320 kts | 79° |
| 2026-05-05 15:44 | 45.39436 | -73.65327 | 8345 ft | 326 kts | 73° |
| 2026-05-05 15:44 | 45.40226 | -73.62265 | 9406 ft | 332 kts | 70° |
| 2026-05-05 15:44 | 45.41079 | -73.59218 | 10224 ft | 341 kts | 69° |
| 2026-05-05 15:45 | 45.42000 | -73.55971 | 10617 ft | 367 kts | 69° |
| 2026-05-05 15:45 | 45.42990 | -73.52445 | 10862 ft | 398 kts | 70° |
| 2026-05-05 15:45 | 45.44040 | -73.48658 | 11240 ft | 421 kts | 70° |
| 2026-05-05 15:45 | 45.45119 | -73.44718 | 12013 ft | 431 kts | 70° |
| 2026-05-05 15:46 | 45.46211 | -73.40693 | 12967 ft | 438 kts | 70° |
| 2026-05-05 15:46 | 45.47309 | -73.36610 | 13880 ft | 444 kts | 70° |
| 2026-05-05 15:46 | 45.48414 | -73.32477 | 14746 ft | 449 kts | 70° |
| 2026-05-05 15:46 | 45.49530 | -73.28295 | 15571 ft | 454 kts | 70° |
| 2026-05-05 15:47 | 45.50658 | -73.24053 | 16385 ft | 460 kts | 70° |
| 2026-05-05 15:47 | 45.51411 | -73.21217 | 16914 ft | 465 kts | 70° |
| 2026-05-05 15:47 | 45.52952 | -73.15400 | 18007 ft | 473 kts | 70° |
| 2026-05-05 15:47 | 45.54103 | -73.11046 | 18716 ft | 477 kts | 70° |
| 2026-05-05 15:48 | 45.55278 | -73.06596 | 19467 ft | 482 kts | 70° |